createdAt,value
2018-08-09T00:02:13.978Z,95374.00
2018-08-09T00:04:42.957Z,95368.00
2018-08-09T00:07:11.941Z,95363.00
2018-08-09T00:09:40.921Z,95375.00
2018-08-09T00:12:10.269Z,95367.00
2018-08-09T00:14:39.261Z,95369.00
2018-08-09T00:17:08.261Z,95366.00
2018-08-09T00:19:37.266Z,95367.00
2018-08-09T00:22:06.310Z,95356.00
2018-08-09T00:24:35.291Z,95352.00
2018-08-09T00:27:04.277Z,95350.00
2018-08-09T00:29:33.301Z,95350.00
2018-08-09T00:32:02.298Z,95358.00
2018-08-09T00:34:31.281Z,95351.00
2018-08-09T00:37:00.282Z,95344.00
2018-08-09T00:39:29.253Z,95341.00
2018-08-09T00:41:58.274Z,95340.00
2018-08-09T00:44:27.250Z,95329.00
2018-08-09T00:46:56.240Z,95330.00
2018-08-09T00:49:25.235Z,95336.00
2018-08-09T00:51:54.217Z,95335.00
2018-08-09T00:54:23.225Z,95334.00
2018-08-09T00:56:52.234Z,95332.00
2018-08-09T00:59:21.232Z,95325.00
2018-08-09T01:01:50.219Z,95317.00
2018-08-09T01:04:19.251Z,95316.00
2018-08-09T01:06:54.798Z,95320.00
2018-08-09T01:09:23.809Z,95315.00
2018-08-09T01:11:52.917Z,95311.00
2018-08-09T01:14:21.943Z,95316.00
2018-08-09T01:16:50.930Z,95313.00
2018-08-09T01:19:19.923Z,95322.00
2018-08-09T01:21:48.926Z,95302.00
2018-08-09T01:24:17.918Z,95315.00
2018-08-09T01:26:46.902Z,95316.00
2018-08-09T01:29:15.910Z,95317.00
2018-08-09T01:31:44.932Z,95307.00
2018-08-09T01:34:13.922Z,95307.00
2018-08-09T01:36:42.894Z,95306.00
2018-08-09T01:39:13.092Z,95304.00
2018-08-09T01:41:58.865Z,95304.00
2018-08-09T01:44:27.856Z,95296.00
2018-08-09T01:46:56.850Z,95293.00
2018-08-09T01:49:25.891Z,95300.00
2018-08-09T01:51:54.904Z,95303.00
2018-08-09T01:54:23.894Z,95312.00
2018-08-09T01:56:52.885Z,95308.00
2018-08-09T01:59:21.977Z,95309.00
2018-08-09T02:01:50.963Z,95309.00
2018-08-09T02:04:19.938Z,95303.00
2018-08-09T02:06:48.936Z,95315.00
2018-08-09T02:09:23.270Z,95306.00
2018-08-09T02:11:52.260Z,95306.00
2018-08-09T02:14:21.274Z,95304.00
2018-08-09T02:16:50.378Z,95314.00
2018-08-09T02:19:19.382Z,95303.00
2018-08-09T02:21:48.353Z,95310.00
2018-08-09T02:24:17.416Z,95312.00
2018-08-09T02:26:46.414Z,95312.00
2018-08-09T02:29:15.408Z,95303.00
2018-08-09T02:31:44.381Z,95313.00
2018-08-09T02:34:13.374Z,95309.00
2018-08-09T02:36:42.370Z,95300.00
2018-08-09T02:39:11.465Z,95297.00
2018-08-09T02:41:40.559Z,95307.00
2018-08-09T02:44:09.553Z,95312.00
2018-08-09T02:46:38.566Z,95303.00
2018-08-09T02:49:07.661Z,95304.00
2018-08-09T02:51:36.647Z,95299.00
2018-08-09T02:54:05.651Z,95303.00
2018-08-09T02:56:34.634Z,95299.00
2018-08-09T02:59:03.622Z,95295.00
2018-08-09T03:01:32.722Z,95284.00
2018-08-09T03:04:01.715Z,95286.00
2018-08-09T03:06:30.720Z,95285.00
2018-08-09T03:08:59.705Z,95286.00
2018-08-09T03:11:29.031Z,95283.00
2018-08-09T03:13:58.034Z,95284.00
2018-08-09T03:16:27.050Z,95276.00
2018-08-09T03:18:56.045Z,95271.00
2018-08-09T03:21:25.035Z,95269.00
2018-08-09T03:23:54.042Z,95271.00
2018-08-09T03:26:23.046Z,95271.00
2018-08-09T03:28:53.570Z,95272.00
2018-08-09T03:31:22.554Z,95269.00
2018-08-09T03:33:51.554Z,95270.00
2018-08-09T03:36:20.578Z,95271.00
2018-08-09T03:38:49.581Z,95282.00
2018-08-09T03:41:18.566Z,95275.00
2018-08-09T03:43:47.578Z,95269.00
2018-08-09T03:46:16.587Z,95271.00
2018-08-09T03:48:45.574Z,95271.00
2018-08-09T03:51:14.573Z,95265.00
2018-08-09T03:53:43.570Z,95278.00
2018-08-09T03:56:12.579Z,95278.00
2018-08-09T03:58:41.571Z,95278.00
2018-08-09T04:01:10.594Z,95277.00
2018-08-09T04:03:39.597Z,95279.00
2018-08-09T04:06:08.618Z,95287.00
2018-08-09T04:08:37.733Z,95274.00
2018-08-09T04:11:06.757Z,95278.00
2018-08-09T04:13:35.762Z,95282.00
2018-08-09T04:16:05.123Z,95293.00
2018-08-09T04:18:34.109Z,95289.00
2018-08-09T04:21:03.108Z,95295.00
2018-08-09T04:23:32.105Z,95303.00
2018-08-09T04:26:01.087Z,95291.00
2018-08-09T04:28:30.070Z,95292.00
2018-08-09T04:30:59.090Z,95295.00
2018-08-09T04:33:28.186Z,95296.00
2018-08-09T04:35:57.190Z,95300.00
2018-08-09T04:38:26.214Z,95298.00
2018-08-09T04:40:55.244Z,95304.00
2018-08-09T04:43:24.222Z,95297.00
2018-08-09T04:45:53.207Z,95300.00
2018-08-09T04:48:22.209Z,95300.00
2018-08-09T04:50:51.227Z,95302.00
2018-08-09T04:53:20.291Z,95301.00
2018-08-09T04:55:49.278Z,95304.00
2018-08-09T04:58:18.284Z,95305.00
2018-08-09T05:00:47.293Z,95293.00
2018-08-09T05:03:16.318Z,95296.00
2018-08-09T05:05:45.334Z,95304.00
2018-08-09T05:08:14.366Z,95298.00
2018-08-09T05:10:43.372Z,95300.00
2018-08-09T05:13:12.410Z,95313.00
2018-08-09T05:15:41.405Z,95310.00
2018-08-09T05:18:10.442Z,95314.00
2018-08-09T05:20:39.481Z,95312.00
2018-08-09T05:23:08.566Z,95318.00
2018-08-09T05:25:37.525Z,95314.00
2018-08-09T05:28:06.516Z,95319.00
2018-08-09T05:30:35.501Z,95313.00
2018-08-09T05:33:04.512Z,95313.00
2018-08-09T05:35:33.497Z,95309.00
2018-08-09T05:38:02.497Z,95320.00
2018-08-09T05:40:31.522Z,95310.00
2018-08-09T05:43:00.555Z,95310.00
2018-08-09T05:45:29.548Z,95304.00
2018-08-09T05:47:58.546Z,95300.00
2018-08-09T05:50:27.577Z,95307.00
2018-08-09T05:52:56.695Z,95314.00
2018-08-09T05:55:25.654Z,95308.00
2018-08-09T05:57:54.646Z,95311.00
2018-08-09T06:00:23.641Z,95306.00
2018-08-09T06:02:52.650Z,95306.00
2018-08-09T06:05:21.636Z,95310.00
2018-08-09T06:07:50.646Z,95311.00
2018-08-09T06:10:19.637Z,95315.00
2018-08-09T06:12:48.650Z,95324.00
2018-08-09T06:15:17.650Z,95324.00
2018-08-09T06:17:46.650Z,95328.00
2018-08-09T06:20:15.643Z,95320.00
2018-08-09T06:22:45.223Z,95322.00
2018-08-09T06:25:14.211Z,95320.00
2018-08-09T06:27:43.234Z,95322.00
2018-08-09T06:30:12.242Z,95326.00
2018-08-09T06:32:41.250Z,95326.00
2018-08-09T06:35:11.135Z,95332.00
2018-08-09T06:37:40.169Z,95327.00
2018-08-09T06:40:12.879Z,95327.00
2018-08-09T06:42:43.023Z,95333.00
2018-08-09T06:45:12.074Z,95330.00
2018-08-09T06:47:41.241Z,95330.00
2018-08-09T06:50:11.378Z,95325.00
2018-08-09T06:52:40.381Z,95324.00
2018-08-09T06:55:09.381Z,95329.00
2018-08-09T06:57:38.386Z,95326.00
2018-08-09T07:00:11.002Z,95325.00
2018-08-09T07:02:40.065Z,95322.00
2018-08-09T07:05:09.054Z,95337.00
2018-08-09T07:07:38.471Z,95325.00
2018-08-09T07:10:08.015Z,95317.00
2018-08-09T07:12:37.009Z,95316.00
2018-08-09T07:15:10.342Z,95315.00
2018-08-09T07:17:39.682Z,95313.00
2018-08-09T07:20:09.610Z,95321.00
2018-08-09T07:22:39.958Z,95302.00
2018-08-09T07:25:09.266Z,95314.00
2018-08-09T07:27:38.453Z,95306.00
2018-08-09T07:30:10.676Z,95308.00
2018-08-09T07:32:39.977Z,95301.00
2018-08-09T07:35:09.742Z,95306.00
2018-08-09T07:37:38.750Z,95311.00
2018-08-09T07:40:10.086Z,95298.00
2018-08-09T07:42:39.491Z,95302.00
2018-08-09T07:45:10.973Z,95298.00
2018-08-09T07:47:40.110Z,95301.00
2018-08-09T07:50:09.933Z,95294.00
2018-08-09T07:52:39.281Z,95297.00
2018-08-09T07:55:09.719Z,95297.00
2018-08-09T07:57:39.369Z,95293.00
2018-08-09T08:00:11.099Z,95288.00
2018-08-09T08:02:40.467Z,95286.00
2018-08-09T08:05:09.468Z,95286.00
2018-08-09T08:07:38.756Z,95279.00
2018-08-09T08:10:09.437Z,95296.00
2018-08-09T08:12:38.518Z,95281.00
2018-08-09T08:15:08.553Z,95288.00
2018-08-09T08:17:37.571Z,95278.00
2018-08-09T08:20:07.286Z,95269.00
2018-08-09T08:22:36.462Z,95271.00
2018-08-09T08:25:06.294Z,95279.00
2018-08-09T08:27:35.389Z,95276.00
2018-08-09T08:30:07.967Z,95269.00
2018-08-09T08:32:36.979Z,95272.00
2018-08-09T08:35:06.402Z,95266.00
2018-08-09T08:37:35.559Z,95262.00
2018-08-09T08:40:04.922Z,95262.00
2018-08-09T08:42:33.923Z,95264.00
2018-08-09T08:45:02.919Z,95263.00
2018-08-09T08:47:31.956Z,95255.00
2018-08-09T08:50:00.929Z,95248.00
2018-08-09T08:52:29.925Z,95254.00
2018-08-09T08:54:58.951Z,95251.00
2018-08-09T08:57:27.930Z,95249.00
2018-08-09T08:59:56.950Z,95251.00
2018-08-09T09:02:25.930Z,95244.00
2018-08-09T09:04:54.962Z,95246.00
2018-08-09T09:07:23.912Z,95230.00
2018-08-09T09:09:52.901Z,95231.00
2018-08-09T09:12:21.913Z,95229.00
2018-08-09T09:14:50.918Z,95215.00
2018-08-09T09:17:19.893Z,95219.00
2018-08-09T09:19:48.910Z,95222.00
2018-08-09T09:22:17.922Z,95219.00
2018-08-09T09:24:46.921Z,95220.00
2018-08-09T09:27:16.047Z,95209.00
2018-08-09T09:29:45.051Z,95208.00
2018-08-09T09:32:14.178Z,95210.00
2018-08-09T09:34:43.194Z,95216.00
2018-08-09T09:37:12.187Z,95212.00
2018-08-09T09:39:41.178Z,95208.00
2018-08-09T09:42:10.180Z,95203.00
2018-08-09T09:44:39.174Z,95210.00
2018-08-09T09:47:08.192Z,95216.00
2018-08-09T09:49:37.230Z,95217.00
2018-08-09T09:52:06.193Z,95214.00
2018-08-09T09:54:35.194Z,95211.00
2018-08-09T09:57:04.207Z,95214.00
2018-08-09T09:59:33.213Z,95196.00
2018-08-09T10:02:02.325Z,95201.00
2018-08-09T10:04:31.274Z,95197.00
2018-08-09T10:07:00.308Z,95201.00
2018-08-09T10:09:29.397Z,95194.00
2018-08-09T10:11:58.398Z,95185.00
2018-08-09T10:14:27.530Z,95192.00
2018-08-09T10:16:56.556Z,95185.00
2018-08-09T10:19:25.529Z,95190.00
2018-08-09T10:21:54.552Z,95188.00
2018-08-09T10:24:23.547Z,95179.00
2018-08-09T10:26:52.542Z,95181.00
2018-08-09T10:29:21.538Z,95177.00
2018-08-09T10:31:50.529Z,95180.00
2018-08-09T10:34:19.538Z,95169.00
2018-08-09T10:36:48.622Z,95169.00
2018-08-09T10:39:17.626Z,95160.00
2018-08-09T10:41:46.607Z,95166.00
2018-08-09T10:44:15.594Z,95166.00
2018-08-09T10:46:44.581Z,95161.00
2018-08-09T10:49:13.558Z,95160.00
2018-08-09T10:51:42.570Z,95157.00
2018-08-09T10:54:11.679Z,95155.00
2018-08-09T10:56:40.678Z,95155.00
2018-08-09T10:59:09.666Z,95151.00
2018-08-09T11:01:38.660Z,95144.00
2018-08-09T11:04:07.640Z,95141.00
2018-08-09T11:06:36.641Z,95141.00
2018-08-09T11:09:09.493Z,95140.00
2018-08-09T11:11:38.482Z,95133.00
2018-08-09T11:14:07.745Z,95131.00
2018-08-09T11:16:36.711Z,95135.00
2018-08-09T11:19:05.993Z,95116.00
2018-08-09T11:21:34.990Z,95115.00
2018-08-09T11:24:03.993Z,95114.00
2018-08-09T11:26:32.979Z,95111.00
2018-08-09T11:29:01.974Z,95110.00
2018-08-09T11:31:30.979Z,95110.00
2018-08-09T11:33:59.999Z,95114.00
2018-08-09T11:36:28.982Z,95113.00
2018-08-09T11:38:57.962Z,95117.00
2018-08-09T11:41:27.026Z,95119.00
2018-08-09T11:43:56.038Z,95120.00
2018-08-09T11:46:25.031Z,95113.00
2018-08-09T11:48:54.037Z,95109.00
2018-08-09T11:51:23.030Z,95108.00
2018-08-09T11:53:52.030Z,95104.00
2018-08-09T11:56:21.061Z,95108.00
2018-08-09T11:58:50.822Z,95111.00
2018-08-09T12:01:19.935Z,95103.00
2018-08-09T12:03:48.930Z,95096.00
2018-08-09T12:06:17.934Z,95091.00
2018-08-09T12:08:46.922Z,95080.00
2018-08-09T12:11:16.024Z,95080.00
2018-08-09T12:13:45.007Z,95085.00
2018-08-09T12:16:14.010Z,95093.00
2018-08-09T12:18:43.049Z,95087.00
2018-08-09T12:21:12.157Z,95089.00
2018-08-09T12:23:41.154Z,95078.00
2018-08-09T12:26:10.310Z,95083.00
2018-08-09T12:28:39.311Z,95076.00
2018-08-09T12:31:08.297Z,95077.00
2018-08-09T12:33:37.281Z,95062.00
2018-08-09T12:36:06.334Z,95070.00
2018-08-09T12:38:35.369Z,95063.00
2018-08-09T12:41:04.389Z,95055.00
2018-08-09T12:43:33.385Z,95057.00
2018-08-09T12:46:02.404Z,95054.00
2018-08-09T12:48:31.409Z,95048.00
2018-08-09T12:51:00.409Z,95043.00
2018-08-09T12:53:29.418Z,95040.00
2018-08-09T12:55:58.426Z,95041.00
2018-08-09T12:58:27.511Z,95038.00
2018-08-09T13:00:56.505Z,95036.00
2018-08-09T13:03:25.514Z,95036.00
2018-08-09T13:05:54.551Z,95038.00
2018-08-09T13:08:23.645Z,95041.00
2018-08-09T13:10:53.354Z,95043.00
2018-08-09T13:13:22.345Z,95039.00
2018-08-09T13:15:51.337Z,95039.00
2018-08-09T13:18:20.370Z,95041.00
2018-08-09T13:20:49.363Z,95042.00
2018-08-09T13:23:18.399Z,95033.00
2018-08-09T13:25:47.401Z,95029.00
2018-08-09T13:28:16.450Z,95021.00
2018-08-09T13:30:45.440Z,95025.00
2018-08-09T13:33:14.490Z,95028.00
2018-08-09T13:35:43.606Z,95018.00
2018-08-09T13:38:12.637Z,95020.00
2018-08-09T13:40:41.667Z,95018.00
2018-08-09T13:43:10.724Z,95014.00
2018-08-09T13:45:39.799Z,95019.00
2018-08-09T13:48:08.797Z,95016.00
2018-08-09T13:50:37.774Z,95013.00
2018-08-09T13:53:06.805Z,95010.00
2018-08-09T13:55:35.823Z,95005.00
2018-08-09T13:58:04.901Z,95013.00
2018-08-09T14:00:33.914Z,94996.00
2018-08-09T14:03:02.917Z,94997.00
2018-08-09T14:05:31.957Z,94996.00
2018-08-09T14:08:00.959Z,94998.00
2018-08-09T14:10:29.965Z,94999.00
2018-08-09T14:12:58.953Z,94998.00
2018-08-09T14:15:27.954Z,95007.00
2018-08-09T14:17:56.952Z,95001.00
2018-08-09T14:20:25.946Z,95006.00
2018-08-09T14:22:54.974Z,95006.00
2018-08-09T14:25:23.970Z,94998.00
2018-08-09T14:27:53.038Z,94998.00
2018-08-09T14:30:22.059Z,94995.00
2018-08-09T14:32:51.075Z,94996.00
2018-08-09T14:35:20.074Z,94990.00
2018-08-09T14:37:49.099Z,94994.00
2018-08-09T14:40:18.082Z,95004.00
2018-08-09T14:42:48.126Z,95013.00
2018-08-09T14:45:17.550Z,95001.00
2018-08-09T14:47:46.641Z,94999.00
2018-08-09T14:50:15.633Z,95003.00
2018-08-09T14:52:44.686Z,95003.00
2018-08-09T14:55:14.010Z,95006.00
2018-08-09T14:57:43.204Z,95001.00
2018-08-09T15:00:18.035Z,95004.00
2018-08-09T15:02:47.883Z,95002.00
2018-08-09T15:05:17.483Z,95007.00
2018-08-09T15:07:46.519Z,95006.00
2018-08-09T15:10:16.846Z,95006.00
2018-08-09T15:12:45.890Z,95002.00
2018-08-09T15:15:14.886Z,94997.00
2018-08-09T15:17:43.929Z,94997.00
2018-08-09T15:20:14.172Z,94998.00
2018-08-09T15:22:43.303Z,95000.00
2018-08-09T15:25:12.580Z,94996.00
2018-08-09T15:27:41.659Z,94996.00
2018-08-09T15:30:17.384Z,95002.00
2018-08-09T15:32:46.841Z,95005.00
2018-08-09T15:35:22.921Z,95002.00
2018-08-09T15:38:13.344Z,95003.00
2018-08-09T15:40:42.370Z,95007.00
2018-08-09T15:43:11.335Z,95009.00
2018-08-09T15:45:40.334Z,95015.00
2018-08-09T15:48:09.384Z,95004.00
2018-08-09T15:50:38.549Z,95005.00
2018-08-09T15:53:07.586Z,95008.00
2018-08-09T15:55:36.601Z,95006.00
2018-08-09T15:58:05.638Z,95010.00
2018-08-09T16:00:34.622Z,95008.00
2018-08-09T16:03:03.964Z,95008.00
2018-08-09T16:05:32.962Z,94999.00
2018-08-09T16:08:02.007Z,95003.00
2018-08-09T16:10:31.003Z,95004.00
2018-08-09T16:13:02.229Z,94996.00
2018-08-09T16:15:34.623Z,95000.00
2018-08-09T16:18:03.893Z,95005.00
2018-08-09T16:20:33.532Z,95003.00
2018-08-09T16:23:02.529Z,95002.00
2018-08-09T16:25:34.014Z,95013.00
2018-08-09T16:28:07.332Z,95018.00
2018-08-09T16:30:38.298Z,95028.00
2018-08-09T16:33:07.418Z,95036.00
2018-08-09T16:35:36.461Z,95050.00
2018-08-09T16:38:05.478Z,95047.00
2018-08-09T16:40:34.494Z,95059.00
2018-08-09T16:43:03.953Z,95047.00
2018-08-09T16:45:33.709Z,95036.00
2018-08-09T16:48:03.020Z,95042.00
2018-08-09T16:50:33.686Z,95043.00
2018-08-09T16:53:03.130Z,95061.00
2018-08-09T16:55:32.125Z,95064.00
2018-08-09T16:58:01.114Z,95059.00
2018-08-09T17:00:30.155Z,95044.00
2018-08-09T17:02:59.158Z,95045.00
2018-08-09T17:05:28.442Z,95040.00
2018-08-09T17:07:57.869Z,95038.00
2018-08-09T17:10:27.198Z,95050.00
2018-08-09T17:12:56.221Z,95039.00
2018-08-09T17:15:27.136Z,95040.00
2018-08-09T17:17:57.046Z,95040.00
2018-08-09T17:20:28.762Z,95040.00
2018-08-09T17:22:58.062Z,95032.00
2018-08-09T17:25:27.122Z,95039.00
2018-08-09T17:27:56.101Z,95034.00
2018-08-09T17:30:26.508Z,95039.00
2018-08-09T17:32:56.294Z,95058.00
2018-08-09T17:35:25.310Z,95107.00
2018-08-09T17:37:54.770Z,95106.00
2018-08-09T17:40:26.726Z,95136.00
2018-08-09T17:42:56.713Z,95146.00
2018-08-09T17:45:30.730Z,95158.00
2018-08-09T17:48:00.306Z,95167.00
2018-08-09T17:50:29.320Z,95193.00
2018-08-09T17:53:01.177Z,95213.00
2018-08-09T17:55:30.759Z,95224.00
2018-08-09T17:57:59.762Z,95245.00
2018-08-09T18:00:30.154Z,95246.00
2018-08-09T18:02:59.265Z,95258.00
2018-08-09T18:05:28.311Z,95280.00
2018-08-09T18:07:58.346Z,95291.00
2018-08-09T18:10:30.206Z,95305.00
2018-08-09T18:12:59.217Z,95319.00
2018-08-09T18:15:29.221Z,95331.00
2018-08-09T18:17:58.779Z,95340.00
2018-08-09T18:20:31.342Z,95375.00
2018-08-09T18:23:00.595Z,95393.00
2018-08-09T18:25:30.194Z,95417.00
2018-08-09T18:27:59.246Z,95427.00
2018-08-09T18:30:28.296Z,95437.00
2018-08-09T18:32:57.338Z,95442.00
2018-08-09T18:35:27.725Z,95463.00
2018-08-09T18:37:56.786Z,95468.00
2018-08-09T18:40:28.027Z,95470.00
2018-08-09T18:42:57.115Z,95479.00
2018-08-09T18:45:26.135Z,95488.00
2018-08-09T18:47:55.169Z,95490.00
2018-08-09T18:50:28.510Z,95497.00
2018-08-09T18:52:57.626Z,95496.00
2018-08-09T18:55:26.646Z,95495.00
2018-08-09T18:57:55.654Z,95492.00
2018-08-09T19:00:27.329Z,95494.00
2018-08-09T19:02:56.452Z,95492.00
2018-08-09T19:05:25.779Z,95497.00
2018-08-09T19:07:54.782Z,95490.00
2018-08-09T19:10:25.864Z,95493.00
2018-08-09T19:12:54.901Z,95496.00
2018-08-09T19:15:23.902Z,95500.00
2018-08-09T19:17:53.077Z,95507.00
2018-08-09T19:20:26.721Z,95510.00
2018-08-09T19:22:55.879Z,95516.00
2018-08-09T19:25:24.909Z,95532.00
2018-08-09T19:27:53.968Z,95535.00
2018-08-09T19:30:24.994Z,95539.00
2018-08-09T19:32:54.003Z,95543.00
2018-08-09T19:35:23.357Z,95541.00
2018-08-09T19:37:56.872Z,95539.00
2018-08-09T19:40:29.885Z,95534.00
2018-08-09T19:42:59.201Z,95533.00
2018-08-09T19:45:28.214Z,95541.00
2018-08-09T19:47:58.486Z,95556.00
2018-08-09T19:50:27.833Z,95557.00
2018-08-09T19:52:58.562Z,95562.00
2018-08-09T19:55:28.205Z,95568.00
2018-08-09T19:57:57.205Z,95570.00
2018-08-09T20:00:29.022Z,95572.00
2018-08-09T20:02:58.031Z,95569.00
2018-08-09T20:05:27.014Z,95565.00
2018-08-09T20:07:56.434Z,95566.00
2018-08-09T20:10:25.550Z,95559.00
2018-08-09T20:12:54.586Z,95549.00
2018-08-09T20:15:24.406Z,95548.00
2018-08-09T20:17:53.413Z,95555.00
2018-08-09T20:20:23.974Z,95546.00
2018-08-09T20:22:53.191Z,95549.00
2018-08-09T20:25:22.154Z,95549.00
2018-08-09T20:27:51.154Z,95553.00
2018-08-09T20:30:20.329Z,95551.00
2018-08-09T20:32:49.647Z,95553.00
2018-08-09T20:35:21.914Z,95563.00
2018-08-09T20:37:51.342Z,95574.00
2018-08-09T20:40:21.486Z,95585.00
2018-08-09T20:42:51.554Z,95600.00
2018-08-09T20:45:21.757Z,95602.00
2018-08-09T20:47:50.775Z,95602.00
2018-08-09T20:50:21.337Z,95616.00
2018-08-09T20:52:50.708Z,95614.00
2018-08-09T20:55:19.733Z,95614.00
2018-08-09T20:57:49.487Z,95611.00
2018-08-09T21:00:21.835Z,95606.00
2018-08-09T21:02:52.218Z,95607.00
2018-08-09T21:05:24.052Z,95599.00
2018-08-09T21:07:53.843Z,95605.00
2018-08-09T21:10:23.246Z,95608.00
2018-08-09T21:12:52.270Z,95613.00
2018-08-09T21:15:21.606Z,95604.00
2018-08-09T21:17:50.622Z,95605.00
2018-08-09T21:20:19.678Z,95609.00
2018-08-09T21:22:49.429Z,95602.00
2018-08-09T21:25:18.541Z,95609.00
2018-08-09T21:27:48.045Z,95606.00
2018-08-09T21:30:18.521Z,95603.00
2018-08-09T21:32:48.000Z,95608.00
2018-08-09T21:35:16.997Z,95614.00
2018-08-09T21:37:46.323Z,95625.00
2018-08-09T21:40:15.749Z,95620.00
2018-08-09T21:42:44.898Z,95637.00
2018-08-09T21:45:17.426Z,95629.00
2018-08-09T21:47:46.410Z,95639.00
2018-08-09T21:50:17.214Z,95641.00
2018-08-09T21:52:46.214Z,95636.00
2018-08-09T21:55:15.330Z,95641.00
2018-08-09T21:57:45.258Z,95653.00
2018-08-09T22:00:43.874Z,95653.00
2018-08-09T22:03:12.879Z,95664.00
2018-08-09T22:05:47.197Z,95662.00
2018-08-09T22:08:21.563Z,95679.00
2018-08-09T22:10:55.750Z,95680.00
2018-08-09T22:13:30.075Z,95679.00
2018-08-09T22:16:04.385Z,95684.00
2018-08-09T22:18:38.606Z,95686.00
2018-08-09T22:21:13.185Z,95679.00
2018-08-09T22:23:42.178Z,95674.00
2018-08-09T22:26:11.849Z,95672.00
2018-08-09T22:28:41.185Z,95684.00
2018-08-09T22:31:10.185Z,95689.00
2018-08-09T22:33:39.190Z,95696.00
2018-08-09T22:36:08.312Z,95697.00
2018-08-09T22:38:37.250Z,95695.00
2018-08-09T22:41:06.280Z,95698.00
2018-08-09T22:43:35.268Z,95698.00
2018-08-09T22:46:04.409Z,95701.00
2018-08-09T22:48:33.786Z,95698.00
2018-08-09T22:51:02.802Z,95701.00
2018-08-09T22:53:31.825Z,95705.00
2018-08-09T22:56:00.894Z,95722.00
2018-08-09T22:58:29.885Z,95734.00
2018-08-09T23:00:58.906Z,95731.00
2018-08-09T23:03:27.962Z,95740.00
2018-08-09T23:05:56.995Z,95738.00
2018-08-09T23:08:25.997Z,95746.00
2018-08-09T23:10:54.994Z,95747.00
2018-08-09T23:13:24.033Z,95756.00
2018-08-09T23:15:53.022Z,95768.00
2018-08-09T23:18:22.049Z,95763.00
2018-08-09T23:20:51.038Z,95757.00
2018-08-09T23:23:20.028Z,95772.00
2018-08-09T23:25:49.123Z,95769.00
2018-08-09T23:28:18.251Z,95771.00
2018-08-09T23:30:47.226Z,95767.00
2018-08-09T23:33:21.026Z,95777.00
2018-08-09T23:35:50.137Z,95778.00
2018-08-09T23:38:19.131Z,95778.00
2018-08-09T23:40:48.114Z,95797.00
2018-08-09T23:43:17.117Z,95795.00
2018-08-09T23:45:46.114Z,95797.00
2018-08-09T23:48:15.106Z,95794.00
2018-08-09T23:50:44.104Z,95793.00
2018-08-09T23:53:13.109Z,95796.00
2018-08-09T23:55:42.112Z,95792.00
2018-08-09T23:58:11.232Z,95811.00
